createdAt,value
2019-05-21T00:00:37.823Z,927.2
2019-05-21T00:01:38.237Z,927.19
2019-05-21T00:02:38.364Z,927.15
2019-05-21T00:03:38.834Z,927.2
2019-05-21T00:04:39.244Z,927.2
2019-05-21T00:05:39.506Z,927.25
2019-05-21T00:06:39.981Z,927.26
2019-05-21T00:07:40.441Z,927.27
2019-05-21T00:08:40.555Z,927.25
2019-05-21T00:09:40.954Z,927.24
2019-05-21T00:10:41.654Z,927.21
2019-05-21T00:11:41.822Z,927.25
2019-05-21T00:12:42.527Z,927.26
2019-05-21T00:13:42.956Z,927.26
2019-05-21T00:14:43.076Z,927.27
2019-05-21T00:15:43.387Z,927.26
2019-05-21T00:16:43.776Z,927.28
2019-05-21T00:17:44.478Z,927.23
2019-05-21T00:18:45.167Z,927.29
2019-05-21T00:19:46.163Z,927.29
2019-05-21T00:20:46.566Z,927.29
2019-05-21T00:21:46.999Z,927.26
2019-05-21T00:22:47.112Z,927.23
2019-05-21T00:23:48.096Z,927.27
2019-05-21T00:24:48.660Z,927.38
2019-05-21T00:25:49.182Z,927.32
2019-05-21T00:26:49.585Z,927.32
2019-05-21T00:27:50.370Z,927.29
2019-05-21T00:28:51.090Z,927.27
2019-05-21T00:29:51.510Z,927.32
2019-05-21T00:30:51.641Z,927.3
2019-05-21T00:31:52.632Z,927.27
2019-05-21T00:32:53.050Z,927.28
2019-05-21T00:33:53.506Z,927.33
2019-05-21T00:34:53.623Z,927.36
2019-05-21T00:35:54.565Z,927.36
2019-05-21T00:36:55.335Z,927.34
2019-05-21T00:37:55.626Z,927.34
2019-05-21T00:38:55.744Z,927.31
2019-05-21T00:39:56.158Z,927.36
2019-05-21T00:40:56.881Z,927.31
2019-05-21T00:41:57.291Z,927.38
2019-05-21T00:42:57.477Z,927.36
2019-05-21T00:43:57.602Z,927.35
2019-05-21T00:44:58.021Z,927.3
2019-05-21T00:45:58.971Z,927.23
2019-05-21T00:46:59.373Z,927.18
2019-05-21T00:47:59.786Z,927.17
2019-05-21T00:49:00.446Z,927.22
2019-05-21T00:50:00.918Z,927.16
2019-05-21T00:51:01.336Z,927.12
2019-05-21T00:52:07.609Z,927.1
2019-05-21T00:53:02.825Z,927.1
2019-05-21T00:54:03.267Z,927.07
2019-05-21T00:55:03.956Z,927.11
2019-05-21T00:56:04.911Z,927.18
2019-05-21T00:57:05.218Z,927.17
2019-05-21T00:58:06.068Z,927.15
2019-05-21T00:59:06.495Z,927.22
2019-05-21T01:00:07.612Z,927.16
2019-05-21T01:01:07.705Z,927.14
2019-05-21T01:02:08.392Z,927.11
2019-05-21T01:03:08.797Z,927.2
2019-05-21T01:04:09.196Z,927.19
2019-05-21T01:05:09.907Z,927.16
2019-05-21T01:06:10.567Z,927.05
2019-05-21T01:07:11.599Z,927.19
2019-05-21T01:08:12.018Z,927.19
2019-05-21T01:09:12.725Z,927.25
2019-05-21T01:10:13.446Z,927.29
2019-05-21T01:11:13.555Z,927.26
2019-05-21T01:12:13.967Z,927.28
2019-05-21T01:13:14.675Z,927.28
2019-05-21T01:14:14.787Z,927.31
2019-05-21T01:15:15.775Z,927.22
2019-05-21T01:16:16.704Z,927.18
2019-05-21T01:17:16.819Z,927.19
2019-05-21T01:18:17.219Z,927.2
2019-05-21T01:19:17.338Z,927.27
2019-05-21T01:20:18.044Z,927.32
2019-05-21T01:21:19.018Z,927.24
2019-05-21T01:22:19.425Z,927.29
2019-05-21T01:23:19.836Z,927.29
2019-05-21T01:24:20.531Z,927.27
2019-05-21T01:25:20.642Z,927.27
2019-05-21T01:26:21.576Z,927.25
2019-05-21T01:27:21.690Z,927.34
2019-05-21T01:28:22.672Z,927.35
2019-05-21T01:29:23.097Z,927.32
2019-05-21T01:30:24.074Z,927.28
2019-05-21T01:31:24.219Z,927.2
2019-05-21T01:32:24.988Z,927.24
2019-05-21T01:33:25.701Z,927.35
2019-05-21T01:34:25.842Z,927.22
2019-05-21T01:35:26.607Z,927.32
2019-05-21T01:36:27.406Z,927.29
2019-05-21T01:37:27.802Z,927.35
2019-05-21T01:38:28.204Z,927.39
2019-05-21T01:39:28.915Z,927.39
2019-05-21T01:40:29.339Z,927.37
2019-05-21T01:41:30.319Z,927.35
2019-05-21T01:42:30.724Z,927.39
2019-05-21T01:43:31.412Z,927.32
2019-05-21T01:44:31.807Z,927.48
2019-05-21T01:45:32.479Z,927.4
2019-05-21T01:46:33.411Z,927.42
2019-05-21T01:47:33.819Z,927.38
2019-05-21T01:48:34.510Z,927.36
2019-05-21T01:49:35.203Z,927.42
2019-05-21T01:50:35.325Z,927.38
2019-05-21T01:51:36.014Z,927.36
2019-05-21T01:52:36.182Z,927.36
2019-05-21T01:53:36.870Z,927.39
2019-05-21T01:54:36.981Z,927.36
2019-05-21T01:55:37.694Z,927.42
2019-05-21T01:56:38.629Z,927.4
2019-05-21T01:57:39.329Z,927.36
2019-05-21T01:58:39.723Z,927.38
2019-05-21T01:59:40.108Z,927.42
2019-05-21T02:00:40.827Z,927.49
2019-05-21T02:01:41.794Z,927.34
2019-05-21T02:02:42.203Z,927.33
2019-05-21T02:03:42.865Z,927.32
2019-05-21T02:04:43.627Z,927.27
2019-05-21T02:05:44.331Z,927.27
2019-05-21T02:06:45.278Z,927.36
2019-05-21T02:07:45.695Z,927.32
2019-05-21T02:08:46.454Z,927.33
2019-05-21T02:09:47.462Z,927.27
2019-05-21T02:10:47.596Z,927.31
2019-05-21T02:11:48.071Z,927.34
2019-05-21T02:12:48.768Z,927.24
2019-05-21T02:13:49.195Z,927.34
2019-05-21T02:14:49.356Z,927.29
2019-05-21T02:15:50.362Z,927.31
2019-05-21T02:16:51.141Z,927.27
2019-05-21T02:17:51.527Z,927.3
2019-05-21T02:18:51.692Z,927.32
2019-05-21T02:19:52.456Z,927.28
2019-05-21T02:20:53.462Z,927.31
2019-05-21T02:21:53.850Z,927.3
2019-05-21T02:22:53.959Z,927.29
2019-05-21T02:23:54.656Z,927.28
2019-05-21T02:24:55.057Z,927.3
2019-05-21T02:25:55.481Z,927.23
2019-05-21T02:26:55.713Z,927.21
2019-05-21T02:27:56.112Z,927.3
2019-05-21T02:28:56.623Z,927.25
2019-05-21T02:29:57.655Z,927.3
2019-05-21T02:30:57.857Z,927.31
2019-05-21T02:31:58.568Z,927.31
2019-05-21T02:32:59.306Z,927.27
2019-05-21T02:33:59.711Z,927.29
2019-05-21T02:35:00.156Z,927.34
2019-05-21T02:36:00.478Z,927.35
2019-05-21T02:37:01.520Z,927.33
2019-05-21T02:38:01.483Z,927.36
2019-05-21T02:39:02.509Z,927.36
2019-05-21T02:40:03.220Z,927.33
2019-05-21T02:41:03.644Z,927.4
2019-05-21T02:42:04.320Z,927.48
2019-05-21T02:43:05.008Z,927.43
2019-05-21T02:44:05.685Z,927.41
2019-05-21T02:45:06.098Z,927.39
2019-05-21T02:46:06.824Z,927.42
2019-05-21T02:47:07.765Z,927.34
2019-05-21T02:48:08.500Z,927.44
2019-05-21T02:49:09.235Z,927.4
2019-05-21T02:50:09.940Z,927.44
2019-05-21T02:51:10.215Z,927.5
2019-05-21T02:52:10.627Z,927.48
2019-05-21T02:53:11.054Z,927.47
2019-05-21T02:54:11.760Z,927.48
2019-05-21T02:55:12.788Z,927.51
2019-05-21T02:56:13.783Z,927.55
2019-05-21T02:57:14.004Z,927.49
2019-05-21T02:58:14.999Z,927.46
2019-05-21T02:59:15.428Z,927.5
2019-05-21T03:00:16.124Z,927.56
2019-05-21T03:01:17.971Z,927.51
2019-05-21T03:02:17.472Z,927.52
2019-05-21T03:03:18.171Z,927.54
2019-05-21T03:04:18.588Z,927.47
2019-05-21T03:05:19.291Z,927.51
2019-05-21T03:06:20.004Z,927.48
2019-05-21T03:07:20.545Z,927.52
2019-05-21T03:08:21.028Z,927.46
2019-05-21T03:09:22.036Z,927.58
2019-05-21T03:10:22.436Z,927.54
2019-05-21T03:11:22.852Z,927.51
2019-05-21T03:12:23.552Z,927.56
2019-05-21T03:13:24.551Z,927.57
2019-05-21T03:14:25.373Z,927.65
2019-05-21T03:15:25.657Z,927.69
2019-05-21T03:16:26.374Z,927.6
2019-05-21T03:17:26.919Z,927.64
2019-05-21T03:18:27.610Z,927.69
2019-05-21T03:19:28.604Z,927.67
2019-05-21T03:20:29.011Z,927.7
2019-05-21T03:21:29.427Z,927.71
2019-05-21T03:22:30.127Z,927.71
2019-05-21T03:23:31.123Z,927.74
2019-05-21T03:24:31.557Z,927.72
2019-05-21T03:25:32.258Z,927.76
2019-05-21T03:26:33.283Z,927.72
2019-05-21T03:27:33.504Z,927.7
2019-05-21T03:28:34.209Z,927.71
2019-05-21T03:29:34.698Z,927.73
2019-05-21T03:30:35.708Z,927.78
2019-05-21T03:31:36.409Z,927.81
2019-05-21T03:32:36.691Z,927.77
2019-05-21T03:33:37.242Z,927.8
2019-05-21T03:34:38.241Z,927.8
2019-05-21T03:35:38.666Z,927.81
2019-05-21T03:36:39.047Z,927.83
2019-05-21T03:37:39.601Z,927.89
2019-05-21T03:38:40.626Z,927.89
2019-05-21T03:39:41.650Z,927.91
2019-05-21T03:40:42.694Z,927.94
2019-05-21T03:41:43.395Z,927.97
2019-05-21T03:42:44.102Z,927.95
2019-05-21T03:43:44.515Z,927.99
2019-05-21T03:44:58.651Z,927.97
2019-05-21T03:45:45.852Z,927.98
2019-05-21T03:46:46.853Z,928.02
2019-05-21T03:47:47.660Z,928.05
2019-05-21T03:48:48.098Z,928.04
2019-05-21T03:49:48.879Z,928.08
2019-05-21T03:50:49.580Z,928.03
2019-05-21T03:51:49.997Z,928.13
2019-05-21T03:52:50.719Z,928.14
2019-05-21T03:53:51.016Z,928.14
2019-05-21T03:54:51.722Z,928.15
2019-05-21T03:55:52.591Z,928.15
2019-05-21T03:56:53.019Z,928.16
2019-05-21T03:57:53.280Z,928.23
2019-05-21T03:58:53.995Z,928.26
2019-05-21T03:59:54.982Z,928.24
2019-05-21T04:00:55.395Z,928.25
2019-05-21T04:01:55.867Z,928.24
2019-05-21T04:02:56.642Z,928.24
2019-05-21T04:03:57.665Z,928.25
2019-05-21T04:04:57.952Z,928.32
2019-05-21T04:05:58.955Z,928.34
2019-05-21T04:06:59.382Z,928.34
2019-05-21T04:08:00.194Z,928.36
2019-05-21T04:09:00.894Z,928.34
2019-05-21T04:10:01.897Z,928.35
2019-05-21T04:11:02.602Z,928.38
2019-05-21T04:12:03.342Z,928.39
2019-05-21T04:13:03.770Z,928.31
2019-05-21T04:14:04.058Z,928.32
2019-05-21T04:15:05.049Z,928.38
2019-05-21T04:16:05.199Z,928.31
2019-05-21T04:17:05.924Z,928.38
2019-05-21T04:18:06.510Z,928.33
2019-05-21T04:19:07.230Z,928.43
2019-05-21T04:20:07.388Z,928.38
2019-05-21T04:21:07.822Z,928.31
2019-05-21T04:22:07.945Z,928.37
2019-05-21T04:23:08.064Z,928.33
2019-05-21T04:24:09.459Z,928.38
2019-05-21T04:25:08.678Z,928.35
2019-05-21T04:26:08.790Z,928.43
2019-05-21T04:27:09.248Z,928.48
2019-05-21T04:28:09.859Z,928.5
2019-05-21T04:29:10.419Z,928.49
2019-05-21T04:30:11.425Z,928.53
2019-05-21T04:31:11.547Z,928.57
2019-05-21T04:32:12.297Z,928.53
2019-05-21T04:33:13.269Z,928.57
2019-05-21T04:34:14.260Z,928.63
2019-05-21T04:35:14.945Z,928.52
2019-05-21T04:36:15.990Z,928.55
2019-05-21T04:37:17.620Z,928.61
2019-05-21T04:38:17.986Z,928.65
2019-05-21T04:39:18.677Z,928.63
2019-05-21T04:40:18.966Z,928.63
2019-05-21T04:41:19.751Z,928.66
2019-05-21T04:42:20.754Z,928.58
2019-05-21T04:43:21.439Z,928.63
2019-05-21T04:44:21.855Z,928.57
2019-05-21T04:45:22.580Z,928.68
2019-05-21T04:46:23.298Z,928.62
2019-05-21T04:47:23.450Z,928.74
2019-05-21T04:48:24.010Z,928.7
2019-05-21T04:49:24.598Z,928.75
2019-05-21T04:50:25.599Z,928.72
2019-05-21T04:51:26.126Z,928.78
2019-05-21T04:52:26.416Z,928.74
2019-05-21T04:53:27.123Z,928.7
2019-05-21T04:54:27.529Z,928.67
2019-05-21T04:55:28.238Z,928.71
2019-05-21T04:56:28.951Z,928.69
2019-05-21T04:57:29.977Z,928.64
2019-05-21T04:58:30.105Z,928.74
2019-05-21T04:59:30.379Z,928.68
2019-05-21T05:00:30.794Z,928.67
2019-05-21T05:01:31.381Z,928.71
2019-05-21T05:02:31.797Z,928.75
2019-05-21T05:03:32.079Z,928.72
2019-05-21T05:04:32.808Z,928.79
2019-05-21T05:05:33.532Z,928.77
2019-05-21T05:06:33.943Z,928.81
2019-05-21T05:07:34.979Z,928.68
2019-05-21T05:08:35.232Z,928.73
2019-05-21T05:09:35.619Z,928.7
2019-05-21T05:10:35.730Z,928.72
2019-05-21T05:11:36.188Z,928.75
2019-05-21T05:12:36.306Z,928.76
2019-05-21T05:13:37.092Z,928.78
2019-05-21T05:14:37.497Z,928.75
2019-05-21T05:15:38.197Z,928.82
2019-05-21T05:16:38.931Z,928.78
2019-05-21T05:17:39.661Z,928.82
2019-05-21T05:18:40.191Z,928.84
2019-05-21T05:19:40.342Z,928.82
2019-05-21T05:20:41.059Z,928.8
2019-05-21T05:21:41.465Z,928.92
2019-05-21T05:22:41.591Z,928.79
2019-05-21T05:23:42.016Z,928.89
2019-05-21T05:24:42.545Z,928.89
2019-05-21T05:25:42.956Z,928.86
2019-05-21T05:26:43.644Z,928.93
2019-05-21T05:27:43.757Z,928.89
2019-05-21T05:28:44.003Z,928.86
2019-05-21T05:29:44.408Z,928.9
2019-05-21T05:30:44.569Z,928.88
2019-05-21T05:31:45.552Z,928.96
2019-05-21T05:32:45.967Z,928.94
2019-05-21T05:33:46.675Z,928.94
2019-05-21T05:34:47.352Z,928.99
2019-05-21T05:35:47.468Z,929.04
2019-05-21T05:36:48.155Z,929.08
2019-05-21T05:37:49.203Z,929.02
2019-05-21T05:38:49.518Z,929.04
2019-05-21T05:39:49.957Z,929.09
2019-05-21T05:40:50.368Z,929.1
2019-05-21T05:41:51.130Z,929.08
2019-05-21T05:42:51.933Z,929.1
2019-05-21T05:43:52.633Z,929.09
2019-05-21T05:44:53.330Z,929.12
2019-05-21T05:45:54.314Z,929.1
2019-05-21T05:46:55.296Z,929.13
2019-05-21T05:47:55.415Z,929.15
2019-05-21T05:48:56.346Z,929.15
2019-05-21T05:49:57.010Z,929.13
2019-05-21T05:50:57.200Z,929.2
2019-05-21T05:51:57.922Z,929.17
2019-05-21T05:52:58.359Z,929.17
2019-05-21T05:53:59.031Z,929.19
2019-05-21T05:54:59.905Z,929.24
2019-05-21T05:56:00.682Z,929.2
2019-05-21T05:57:01.248Z,929.16
2019-05-21T05:58:01.687Z,929.15
2019-05-21T05:59:02.230Z,929.2
2019-05-21T06:00:02.381Z,929.25
2019-05-21T06:01:03.390Z,929.23
2019-05-21T06:02:04.188Z,929.28
2019-05-21T06:03:04.650Z,929.23
2019-05-21T06:04:05.442Z,929.29
2019-05-21T06:05:06.631Z,929.26
2019-05-21T06:06:06.778Z,929.24
2019-05-21T06:07:06.838Z,929.26
2019-05-21T06:08:06.955Z,929.29
2019-05-21T06:09:07.481Z,929.34
2019-05-21T06:10:08.186Z,929.29
2019-05-21T06:11:08.978Z,929.3
2019-05-21T06:12:09.950Z,929.31
2019-05-21T06:13:10.632Z,929.31
2019-05-21T06:14:11.333Z,929.33
2019-05-21T06:15:11.852Z,929.37
2019-05-21T06:16:12.822Z,929.34
2019-05-21T06:17:12.614Z,929.34
2019-05-21T06:18:13.028Z,929.36
2019-05-21T06:19:13.544Z,929.37
2019-05-21T06:20:14.230Z,929.38
2019-05-21T06:21:14.649Z,929.42
2019-05-21T06:22:15.695Z,929.47
2019-05-21T06:23:15.820Z,929.4
2019-05-21T06:24:15.917Z,929.47
2019-05-21T06:25:16.037Z,929.48
2019-05-21T06:26:17.045Z,929.48
2019-05-21T06:27:17.771Z,929.5
2019-05-21T06:28:17.890Z,929.5
2019-05-21T06:29:18.870Z,929.51
2019-05-21T06:30:19.914Z,929.54
2019-05-21T06:31:20.369Z,929.57
2019-05-21T06:32:21.630Z,929.54
2019-05-21T06:33:22.404Z,929.58
2019-05-21T06:34:23.483Z,929.65
2019-05-21T06:35:23.317Z,929.65
2019-05-21T06:36:24.018Z,929.67
2019-05-21T06:37:24.726Z,929.64
2019-05-21T06:38:25.770Z,929.67
2019-05-21T06:39:26.699Z,929.7
2019-05-21T06:40:27.415Z,929.66
2019-05-21T06:41:27.520Z,929.69
2019-05-21T06:42:28.025Z,929.68
2019-05-21T06:43:28.446Z,929.69
2019-05-21T06:44:28.842Z,929.72
2019-05-21T06:45:29.143Z,929.72
2019-05-21T06:46:29.847Z,929.69
2019-05-21T06:47:30.898Z,929.71
2019-05-21T06:48:31.903Z,929.73
2019-05-21T06:49:32.145Z,929.79
2019-05-21T06:50:33.156Z,929.78
2019-05-21T06:51:33.734Z,929.75
2019-05-21T06:52:34.558Z,929.76
2019-05-21T06:53:36.196Z,929.84
2019-05-21T06:54:35.656Z,929.79
2019-05-21T06:55:36.097Z,929.77
2019-05-21T06:56:37.069Z,929.82
2019-05-21T06:57:38.060Z,929.82
2019-05-21T06:58:38.179Z,929.84
2019-05-21T06:59:39.043Z,929.79
2019-05-21T07:00:39.764Z,929.78
2019-05-21T07:01:40.173Z,929.86
2019-05-21T07:02:41.860Z,929.9
2019-05-21T07:03:42.431Z,929.93
2019-05-21T07:04:42.503Z,929.86
2019-05-21T07:05:57.464Z,929.96
2019-05-21T07:06:44.911Z,930.03
2019-05-21T07:07:45.743Z,929.94
2019-05-21T07:08:45.269Z,929.95
2019-05-21T07:09:45.924Z,929.92
2019-05-21T07:10:46.613Z,929.94
2019-05-21T07:11:47.097Z,929.96
2019-05-21T07:12:47.214Z,929.96
2019-05-21T07:13:47.632Z,929.91
2019-05-21T07:14:48.669Z,930.02
2019-05-21T07:15:48.789Z,929.99
2019-05-21T07:16:48.943Z,930
2019-05-21T07:17:49.102Z,929.94
2019-05-21T07:18:49.732Z,929.97
2019-05-21T07:19:50.531Z,930.01
2019-05-21T07:20:50.656Z,930.06
2019-05-21T07:21:51.253Z,930.02
2019-05-21T07:22:52.018Z,930.15
2019-05-21T07:23:51.991Z,930.12
2019-05-21T07:24:52.108Z,930.12
2019-05-21T07:25:52.235Z,930.16
2019-05-21T07:26:52.407Z,930.09
2019-05-21T07:27:52.827Z,930.16
2019-05-21T07:28:55.181Z,930.08
2019-05-21T07:29:54.233Z,930.18
2019-05-21T07:30:54.949Z,930.08
2019-05-21T07:31:55.393Z,930.14
2019-05-21T07:32:56.117Z,930.08
2019-05-21T07:33:56.786Z,930.11
2019-05-21T07:34:56.919Z,930.15
2019-05-21T07:35:57.779Z,930.16
2019-05-21T07:36:57.957Z,930.14
2019-05-21T07:37:59.137Z,930.21
2019-05-21T07:38:59.113Z,930.14
2019-05-21T07:39:59.375Z,930.14
2019-05-21T07:41:00.069Z,930.17
2019-05-21T07:42:00.535Z,930.16
2019-05-21T07:43:00.679Z,930.22
2019-05-21T07:44:00.812Z,930.17
2019-05-21T07:45:01.511Z,930.2
2019-05-21T07:46:02.714Z,930.21
2019-05-21T07:47:03.268Z,930.29
2019-05-21T07:48:03.434Z,930.19
2019-05-21T07:49:03.578Z,930.2
2019-05-21T07:50:04.552Z,930.26
2019-05-21T07:51:04.690Z,930.16
2019-05-21T07:52:05.443Z,930.17
2019-05-21T07:53:05.864Z,930.2
2019-05-21T07:54:06.561Z,930.19
2019-05-21T07:55:07.294Z,930.18
2019-05-21T07:56:07.709Z,930.24
2019-05-21T07:57:07.838Z,930.25
2019-05-21T07:58:08.821Z,930.17
2019-05-21T07:59:09.585Z,930.24
2019-05-21T08:00:10.569Z,930.24
2019-05-21T08:01:11.358Z,930.24
2019-05-21T08:02:12.343Z,930.27
2019-05-21T08:03:13.328Z,930.2
2019-05-21T08:04:13.745Z,930.3
2019-05-21T08:05:14.227Z,930.3
2019-05-21T08:06:15.283Z,930.19
2019-05-21T08:07:15.329Z,930.22
2019-05-21T08:08:15.483Z,930.22
2019-05-21T08:09:16.045Z,930.22
2019-05-21T08:10:17.008Z,930.33
2019-05-21T08:11:17.406Z,930.28
2019-05-21T08:12:37.107Z,930.28
2019-05-21T08:13:18.058Z,930.32
2019-05-21T08:14:18.457Z,930.35
2019-05-21T08:15:19.868Z,930.36
2019-05-21T08:16:20.183Z,930.42
2019-05-21T08:17:20.877Z,930.4
2019-05-21T08:18:21.607Z,930.43
2019-05-21T08:19:22.308Z,930.41
2019-05-21T08:20:23.142Z,930.56
2019-05-21T08:21:23.268Z,930.41
2019-05-21T08:22:23.664Z,930.49
2019-05-21T08:23:24.370Z,930.53
2019-05-21T08:24:24.768Z,930.58
2019-05-21T08:25:24.975Z,930.51
2019-05-21T08:26:25.967Z,930.55
2019-05-21T08:27:26.126Z,930.51
2019-05-21T08:28:26.539Z,930.48
2019-05-21T08:29:27.230Z,930.51
2019-05-21T08:30:27.895Z,930.51
2019-05-21T08:31:28.417Z,930.45
2019-05-21T08:32:28.870Z,930.53
2019-05-21T08:33:29.558Z,930.59
2019-05-21T08:34:29.680Z,930.52
2019-05-21T08:35:30.720Z,930.61
2019-05-21T08:36:32.079Z,930.61
2019-05-21T08:37:31.754Z,930.57
2019-05-21T08:38:32.703Z,930.56
2019-05-21T08:39:33.136Z,930.6
2019-05-21T08:40:33.802Z,930.55
2019-05-21T08:41:34.818Z,930.6
2019-05-21T08:42:35.123Z,930.67
2019-05-21T08:43:35.528Z,930.63
2019-05-21T08:44:36.223Z,930.69
2019-05-21T08:45:37.233Z,930.63
2019-05-21T08:46:37.480Z,930.56
2019-05-21T08:47:39.024Z,930.72
2019-05-21T08:48:39.193Z,930.64
2019-05-21T08:49:39.304Z,930.66
2019-05-21T08:50:39.762Z,930.67
2019-05-21T08:51:39.948Z,930.66
2019-05-21T08:52:41.540Z,930.67
2019-05-21T08:53:41.363Z,930.72
2019-05-21T08:54:41.738Z,930.78
2019-05-21T08:55:41.980Z,930.67
2019-05-21T08:56:42.401Z,930.79
2019-05-21T08:57:42.895Z,930.62
2019-05-21T08:58:43.421Z,930.72
2019-05-21T08:59:44.111Z,930.76
2019-05-21T09:00:45.078Z,930.77
2019-05-21T09:01:46.136Z,930.84
2019-05-21T09:02:46.302Z,930.79
2019-05-21T09:03:47.105Z,930.82
2019-05-21T09:04:48.080Z,930.76
2019-05-21T09:05:47.574Z,930.8
2019-05-21T09:06:48.992Z,930.84
2019-05-21T09:07:53.081Z,930.82
2019-05-21T09:08:49.227Z,930.9
2019-05-21T09:09:51.511Z,930.88
2019-05-21T09:10:49.914Z,930.88
2019-05-21T09:11:50.627Z,930.8
2019-05-21T09:12:51.327Z,930.79
2019-05-21T09:13:51.497Z,930.87
2019-05-21T09:14:52.065Z,930.83
2019-05-21T09:15:52.796Z,930.85
2019-05-21T09:16:53.306Z,930.86
2019-05-21T09:17:54.337Z,930.89
2019-05-21T09:18:54.052Z,930.84
2019-05-21T09:19:54.469Z,930.83
2019-05-21T09:20:54.702Z,930.8
2019-05-21T09:21:55.670Z,930.92
2019-05-21T09:22:56.660Z,930.81
2019-05-21T09:23:57.383Z,930.86
2019-05-21T09:24:58.468Z,930.87
2019-05-21T09:25:59.276Z,930.9
2019-05-21T09:26:59.692Z,930.83
2019-05-21T09:28:00.390Z,930.94
2019-05-21T09:29:01.156Z,930.97
2019-05-21T09:30:01.851Z,930.88
2019-05-21T09:31:02.936Z,930.86
2019-05-21T09:32:03.226Z,930.86
2019-05-21T09:33:03.945Z,930.91
2019-05-21T09:34:04.071Z,930.89
2019-05-21T09:35:04.531Z,930.96
2019-05-21T09:36:05.784Z,930.97
2019-05-21T09:37:18.902Z,931.01
2019-05-21T09:38:06.826Z,930.94
2019-05-21T09:39:07.549Z,930.94
2019-05-21T09:40:08.138Z,930.98
2019-05-21T09:41:09.047Z,930.91
2019-05-21T09:42:08.736Z,931.05
2019-05-21T09:43:09.192Z,931.03
2019-05-21T09:44:09.910Z,931.04
2019-05-21T09:45:10.608Z,931.05
2019-05-21T09:46:10.749Z,931.09
2019-05-21T09:47:11.995Z,931.08
2019-05-21T09:48:12.147Z,931.13
2019-05-21T09:49:12.348Z,931.17
2019-05-21T09:50:12.770Z,931.15
2019-05-21T09:51:19.646Z,931.09
2019-05-21T09:52:13.528Z,931.13
2019-05-21T09:53:14.245Z,931.16
2019-05-21T09:54:15.840Z,931.14
2019-05-21T09:55:16.146Z,931.16
2019-05-21T09:56:16.442Z,931.17
2019-05-21T09:57:17.420Z,931.14
2019-05-21T09:58:17.836Z,931.14
2019-05-21T09:59:18.294Z,931.13
2019-05-21T10:00:19.751Z,931.2
2019-05-21T10:01:19.735Z,931.19
2019-05-21T10:02:20.162Z,931.15
2019-05-21T10:03:21.026Z,931.2
2019-05-21T10:04:21.431Z,931.22
2019-05-21T10:05:21.895Z,931.26
2019-05-21T10:06:22.611Z,931.31
2019-05-21T10:07:38.734Z,931.3
2019-05-21T10:08:23.793Z,931.32
2019-05-21T10:09:24.177Z,931.29
2019-05-21T10:10:24.310Z,931.28
2019-05-21T10:11:25.229Z,931.21
2019-05-21T10:12:26.093Z,931.42
2019-05-21T10:13:26.237Z,931.26
2019-05-21T10:14:26.333Z,931.25
2019-05-21T10:15:26.927Z,931.34
2019-05-21T10:16:27.639Z,931.25
2019-05-21T10:17:28.143Z,931.26
2019-05-21T10:18:28.439Z,931.23
2019-05-21T10:19:29.178Z,931.26
2019-05-21T10:20:29.612Z,931.24
2019-05-21T10:21:29.956Z,931.31
2019-05-21T10:22:30.662Z,931.3
2019-05-21T10:23:30.548Z,931.33
2019-05-21T10:24:31.616Z,931.27
2019-05-21T10:25:32.168Z,931.29
2019-05-21T10:26:32.790Z,931.26
2019-05-21T10:27:34.045Z,931.35
2019-05-21T10:28:34.492Z,931.35
2019-05-21T10:29:35.274Z,931.3
2019-05-21T10:30:35.769Z,931.39
2019-05-21T10:31:36.029Z,931.37
2019-05-21T10:32:36.577Z,931.4
2019-05-21T10:33:37.882Z,931.44
2019-05-21T10:34:37.405Z,931.38
2019-05-21T10:35:38.125Z,931.42
2019-05-21T10:36:38.563Z,931.38
2019-05-21T10:37:52.594Z,931.47
2019-05-21T10:38:39.296Z,931.39
2019-05-21T10:39:39.868Z,931.47
2019-05-21T10:40:40.250Z,931.5
2019-05-21T10:41:41.556Z,931.5
2019-05-21T10:42:41.851Z,931.55
2019-05-21T10:43:42.295Z,931.52
2019-05-21T10:44:43.117Z,931.47
2019-05-21T10:45:43.862Z,931.51
2019-05-21T10:46:44.404Z,931.48
2019-05-21T10:47:45.210Z,931.46
2019-05-21T10:48:46.249Z,931.5
2019-05-21T10:49:47.250Z,931.45
2019-05-21T10:50:48.329Z,931.54
2019-05-21T10:51:48.837Z,931.51
2019-05-21T10:52:48.975Z,931.48
2019-05-21T10:53:49.867Z,931.56
2019-05-21T10:54:50.936Z,931.59
2019-05-21T10:55:51.488Z,931.52
2019-05-21T10:56:52.161Z,931.44
2019-05-21T10:57:52.659Z,931.53
2019-05-21T10:58:53.745Z,931.61
2019-05-21T10:59:55.312Z,931.52
2019-05-21T11:00:55.183Z,931.49
2019-05-21T11:01:55.783Z,931.53
2019-05-21T11:02:56.041Z,931.55
2019-05-21T11:03:57.053Z,931.5
2019-05-21T11:04:57.472Z,931.49
2019-05-21T11:06:09.351Z,931.41
2019-05-21T11:06:59.461Z,931.46
2019-05-21T11:08:22.083Z,931.47
2019-05-21T11:09:00.041Z,931.49
2019-05-21T11:10:00.450Z,931.49
2019-05-21T11:11:01.173Z,931.55
2019-05-21T11:12:02.250Z,931.54
2019-05-21T11:13:03.276Z,931.55
2019-05-21T11:14:03.977Z,931.5
2019-05-21T11:15:04.975Z,931.53
2019-05-21T11:16:06.028Z,931.58
2019-05-21T11:17:06.825Z,931.55
2019-05-21T11:18:10.870Z,931.53
2019-05-21T11:19:07.109Z,931.49
2019-05-21T11:20:07.238Z,931.61
2019-05-21T11:21:07.688Z,931.59
2019-05-21T11:22:08.191Z,931.65
2019-05-21T11:23:08.946Z,931.64
2019-05-21T11:24:09.104Z,931.63
2019-05-21T11:25:09.573Z,931.72
2019-05-21T11:26:10.285Z,931.77
2019-05-21T11:27:10.994Z,931.73
2019-05-21T11:28:11.390Z,931.76
2019-05-21T11:29:12.533Z,931.73
2019-05-21T11:30:13.169Z,931.81
2019-05-21T11:31:13.894Z,931.74
2019-05-21T11:32:14.845Z,931.74
2019-05-21T11:33:14.982Z,931.76
2019-05-21T11:34:15.405Z,931.81
2019-05-21T11:35:16.128Z,931.72
2019-05-21T11:36:16.438Z,931.78
2019-05-21T11:37:16.871Z,931.73
2019-05-21T11:38:17.000Z,931.74
2019-05-21T11:39:18.036Z,931.79
2019-05-21T11:40:18.821Z,931.68
2019-05-21T11:41:19.231Z,931.72
2019-05-21T11:42:20.674Z,931.73
2019-05-21T11:43:20.235Z,931.77
2019-05-21T11:44:20.741Z,931.73
2019-05-21T11:45:31.414Z,931.74
2019-05-21T11:46:21.582Z,931.72
2019-05-21T11:47:22.187Z,931.74
2019-05-21T11:48:22.774Z,931.74
2019-05-21T11:49:23.761Z,931.78
2019-05-21T11:50:25.274Z,931.8
2019-05-21T11:51:24.892Z,931.84
2019-05-21T11:52:25.688Z,931.81
2019-05-21T11:53:26.087Z,931.79
2019-05-21T11:54:26.714Z,931.82
2019-05-21T11:55:27.142Z,931.75
2019-05-21T11:56:27.549Z,931.81
2019-05-21T11:57:28.580Z,931.85
2019-05-21T11:58:29.333Z,931.79
2019-05-21T11:59:29.391Z,931.77
2019-05-21T12:00:30.112Z,932.04
2019-05-21T12:01:30.800Z,931.84
2019-05-21T12:02:31.708Z,931.9
2019-05-21T12:03:32.136Z,931.66
2019-05-21T12:04:33.013Z,931.78
2019-05-21T12:05:33.665Z,931.82
2019-05-21T12:06:34.095Z,931.88
2019-05-21T12:07:34.286Z,931.9
2019-05-21T12:08:35.902Z,931.89
2019-05-21T12:09:35.609Z,931.91
2019-05-21T12:10:36.298Z,931.86
2019-05-21T12:11:36.709Z,931.92
2019-05-21T12:12:37.240Z,931.87
2019-05-21T12:13:38.326Z,931.84
2019-05-21T12:14:38.368Z,931.84
2019-05-21T12:15:39.381Z,931.79
2019-05-21T12:16:40.061Z,931.81
2019-05-21T12:17:40.841Z,931.76
2019-05-21T12:18:41.784Z,931.76
2019-05-21T12:19:41.449Z,931.84
2019-05-21T12:20:41.916Z,931.89
2019-05-21T12:21:42.898Z,931.84
2019-05-21T12:22:43.422Z,931.94
2019-05-21T12:23:44.208Z,931.89
2019-05-21T12:24:44.596Z,931.91
2019-05-21T12:25:45.312Z,931.85
2019-05-21T12:26:46.014Z,931.81
2019-05-21T12:27:46.708Z,931.8
2019-05-21T12:28:47.186Z,931.86
2019-05-21T12:29:48.270Z,931.91
2019-05-21T12:30:48.648Z,931.86
2019-05-21T12:31:49.383Z,931.87
2019-05-21T12:32:49.674Z,931.93
2019-05-21T12:33:50.310Z,931.91
2019-05-21T12:34:51.312Z,931.91
2019-05-21T12:35:52.140Z,931.93
2019-05-21T12:36:52.830Z,932.01
2019-05-21T12:37:53.611Z,931.97